sensor_id;sensor_type;location;lat;lon;timestamp;pressure;altitude;pressure_sealevel;temperature;humidity
5413;BME280;2729;50.056;8.678;2022-09-09T00:00:58;99789.72;;;18.11;100.00
5413;BME280;2729;50.056;8.678;2022-09-09T00:03:40;99772.38;;;18.07;100.00
5413;BME280;2729;50.056;8.678;2022-09-09T00:06:21;99774.72;;;18.12;100.00
5413;BME280;2729;50.056;8.678;2022-09-09T00:09:10;99771.53;;;18.07;100.00
5413;BME280;2729;50.056;8.678;2022-09-09T00:11:46;99772.44;;;18.20;100.00
5413;BME280;2729;50.056;8.678;2022-09-09T00:14:35;99768.94;;;18.19;100.00
5413;BME280;2729;50.056;8.678;2022-09-09T00:17:11;99771.63;;;18.05;100.00
5413;BME280;2729;50.056;8.678;2022-09-09T00:19:44;99769.66;;;17.94;100.00
5413;BME280;2729;50.056;8.678;2022-09-09T00:22:17;99769.00;;;17.91;100.00
5413;BME280;2729;50.056;8.678;2022-09-09T00:24:52;99763.25;;;17.84;100.00
5413;BME280;2729;50.056;8.678;2022-09-09T00:30:24;99771.75;;;17.89;100.00
5413;BME280;2729;50.056;8.678;2022-09-09T00:32:54;99767.13;;;17.79;100.00
5413;BME280;2729;50.056;8.678;2022-09-09T00:35:29;99764.50;;;17.79;100.00
5413;BME280;2729;50.056;8.678;2022-09-09T00:38:01;99763.94;;;17.74;100.00
5413;BME280;2729;50.056;8.678;2022-09-09T00:43:27;99769.13;;;17.75;100.00
5413;BME280;2729;50.056;8.678;2022-09-09T00:46:23;99766.78;;;17.71;100.00
5413;BME280;2729;50.056;8.678;2022-09-09T00:49:27;99775.41;;;17.58;100.00
5413;BME280;2729;50.056;8.678;2022-09-09T00:52:05;99776.84;;;17.64;100.00
5413;BME280;2729;50.056;8.678;2022-09-09T00:57:26;99775.59;;;17.41;100.00
5413;BME280;2729;50.056;8.678;2022-09-09T01:02:53;99777.00;;;17.32;100.00
5413;BME280;2729;50.056;8.678;2022-09-09T01:07:54;99768.06;;;17.21;100.00
5413;BME280;2729;50.056;8.678;2022-09-09T01:10:43;99775.88;;;17.22;100.00
5413;BME280;2729;50.056;8.678;2022-09-09T01:13:22;99775.41;;;17.16;100.00
5413;BME280;2729;50.056;8.678;2022-09-09T01:15:49;99778.41;;;17.24;100.00
5413;BME280;2729;50.056;8.678;2022-09-09T01:18:20;99779.94;;;17.28;100.00
5413;BME280;2729;50.056;8.678;2022-09-09T01:21:03;99770.50;;;17.24;100.00
5413;BME280;2729;50.056;8.678;2022-09-09T01:23:47;99766.53;;;17.02;100.00
5413;BME280;2729;50.056;8.678;2022-09-09T01:26:38;99767.28;;;17.04;100.00
5413;BME280;2729;50.056;8.678;2022-09-09T01:29:14;99769.34;;;16.99;100.00
5413;BME280;2729;50.056;8.678;2022-09-09T01:31:55;99762.00;;;17.04;100.00
5413;BME280;2729;50.056;8.678;2022-09-09T01:34:23;99763.50;;;16.94;100.00
5413;BME280;2729;50.056;8.678;2022-09-09T01:37:03;99762.44;;;16.83;100.00
5413;BME280;2729;50.056;8.678;2022-09-09T01:39:33;99760.06;;;16.78;100.00
5413;BME280;2729;50.056;8.678;2022-09-09T01:42:05;99774.00;;;16.80;100.00
5413;BME280;2729;50.056;8.678;2022-09-09T01:47:55;99769.19;;;16.73;100.00
5413;BME280;2729;50.056;8.678;2022-09-09T01:50:38;99763.47;;;16.64;100.00
5413;BME280;2729;50.056;8.678;2022-09-09T01:53:05;99762.56;;;16.65;100.00
5413;BME280;2729;50.056;8.678;2022-09-09T01:55:40;99759.00;;;16.66;100.00
5413;BME280;2729;50.056;8.678;2022-09-09T01:58:25;99758.13;;;16.66;100.00
5413;BME280;2729;50.056;8.678;2022-09-09T02:04:21;99758.38;;;16.61;100.00
5413;BME280;2729;50.056;8.678;2022-09-09T02:06:53;99757.53;;;16.61;100.00
5413;BME280;2729;50.056;8.678;2022-09-09T02:09:26;99765.25;;;16.64;100.00
5413;BME280;2729;50.056;8.678;2022-09-09T02:12:05;99770.38;;;16.67;100.00
5413;BME280;2729;50.056;8.678;2022-09-09T02:14:43;99765.03;;;16.68;100.00
5413;BME280;2729;50.056;8.678;2022-09-09T02:17:18;99772.38;;;16.78;100.00
5413;BME280;2729;50.056;8.678;2022-09-09T02:20:02;99770.97;;;16.72;100.00
5413;BME280;2729;50.056;8.678;2022-09-09T02:22:42;99769.56;;;16.81;100.00
5413;BME280;2729;50.056;8.678;2022-09-09T02:25:13;99776.44;;;16.83;100.00
5413;BME280;2729;50.056;8.678;2022-09-09T02:27:43;99769.75;;;16.78;100.00
5413;BME280;2729;50.056;8.678;2022-09-09T02:30:11;99778.16;;;16.84;100.00
5413;BME280;2729;50.056;8.678;2022-09-09T02:32:43;99775.88;;;16.78;100.00
5413;BME280;2729;50.056;8.678;2022-09-09T02:35:16;99778.06;;;16.86;100.00
5413;BME280;2729;50.056;8.678;2022-09-09T02:37:45;99780.25;;;16.93;100.00
5413;BME280;2729;50.056;8.678;2022-09-09T02:40:13;99777.56;;;16.79;100.00
5413;BME280;2729;50.056;8.678;2022-09-09T02:42:47;99781.81;;;16.82;100.00
5413;BME280;2729;50.056;8.678;2022-09-09T02:45:17;99772.63;;;17.03;100.00
5413;BME280;2729;50.056;8.678;2022-09-09T02:53:39;99772.69;;;17.31;100.00
5413;BME280;2729;50.056;8.678;2022-09-09T02:56:20;99772.84;;;17.14;100.00
5413;BME280;2729;50.056;8.678;2022-09-09T02:58:48;99773.31;;;17.07;100.00
5413;BME280;2729;50.056;8.678;2022-09-09T03:01:15;99779.53;;;17.20;100.00
5413;BME280;2729;50.056;8.678;2022-09-09T03:03:41;99779.09;;;17.27;100.00
5413;BME280;2729;50.056;8.678;2022-09-09T03:06:11;99775.03;;;17.36;100.00
5413;BME280;2729;50.056;8.678;2022-09-09T03:08:38;99771.25;;;17.26;100.00
5413;BME280;2729;50.056;8.678;2022-09-09T03:11:04;99784.00;;;17.33;100.00
5413;BME280;2729;50.056;8.678;2022-09-09T03:13:33;99777.78;;;17.34;100.00
5413;BME280;2729;50.056;8.678;2022-09-09T03:16:00;99770.50;;;17.38;100.00
5413;BME280;2729;50.056;8.678;2022-09-09T03:18:27;99766.00;;;17.40;100.00
5413;BME280;2729;50.056;8.678;2022-09-09T03:20:54;99764.38;;;17.38;100.00
5413;BME280;2729;50.056;8.678;2022-09-09T03:23:20;99763.63;;;17.21;100.00
5413;BME280;2729;50.056;8.678;2022-09-09T03:25:51;99768.91;;;17.21;100.00
5413;BME280;2729;50.056;8.678;2022-09-09T03:28:21;99771.16;;;17.13;100.00
5413;BME280;2729;50.056;8.678;2022-09-09T03:30:49;99772.00;;;17.14;100.00
5413;BME280;2729;50.056;8.678;2022-09-09T03:33:15;99775.78;;;17.24;100.00
5413;BME280;2729;50.056;8.678;2022-09-09T03:35:46;99763.25;;;17.27;100.00
5413;BME280;2729;50.056;8.678;2022-09-09T03:38:18;99773.81;;;17.27;100.00
5413;BME280;2729;50.056;8.678;2022-09-09T03:40:49;99775.56;;;17.13;100.00
5413;BME280;2729;50.056;8.678;2022-09-09T03:43:15;99779.25;;;17.10;100.00
5413;BME280;2729;50.056;8.678;2022-09-09T03:45:46;99782.38;;;17.17;100.00
5413;BME280;2729;50.056;8.678;2022-09-09T03:48:14;99777.91;;;17.03;100.00
5413;BME280;2729;50.056;8.678;2022-09-09T03:50:51;99772.06;;;16.98;100.00
5413;BME280;2729;50.056;8.678;2022-09-09T03:53:19;99768.50;;;16.99;100.00
5413;BME280;2729;50.056;8.678;2022-09-09T03:55:47;99761.25;;;17.02;100.00
5413;BME280;2729;50.056;8.678;2022-09-09T03:58:14;99758.59;;;17.02;100.00
5413;BME280;2729;50.056;8.678;2022-09-09T04:00:41;99762.75;;;17.07;100.00
5413;BME280;2729;50.056;8.678;2022-09-09T04:03:09;99760.19;;;16.91;100.00
5413;BME280;2729;50.056;8.678;2022-09-09T04:05:35;99760.41;;;17.16;100.00
5413;BME280;2729;50.056;8.678;2022-09-09T04:08:08;99761.84;;;17.22;100.00
5413;BME280;2729;50.056;8.678;2022-09-09T04:10:35;99767.13;;;17.22;100.00
5413;BME280;2729;50.056;8.678;2022-09-09T04:13:04;99763.44;;;17.24;100.00
5413;BME280;2729;50.056;8.678;2022-09-09T04:15:31;99759.09;;;17.23;100.00
5413;BME280;2729;50.056;8.678;2022-09-09T04:17:57;99763.53;;;17.37;100.00
5413;BME280;2729;50.056;8.678;2022-09-09T04:20:23;99761.94;;;17.34;100.00
5413;BME280;2729;50.056;8.678;2022-09-09T04:22:50;99759.03;;;17.39;100.00
5413;BME280;2729;50.056;8.678;2022-09-09T04:25:16;99757.59;;;17.48;100.00
5413;BME280;2729;50.056;8.678;2022-09-09T04:27:41;99756.94;;;17.44;100.00
5413;BME280;2729;50.056;8.678;2022-09-09T04:30:08;99757.16;;;17.70;100.00
5413;BME280;2729;50.056;8.678;2022-09-09T04:32:35;99753.94;;;17.64;100.00
5413;BME280;2729;50.056;8.678;2022-09-09T04:35:03;99752.06;;;17.81;100.00
5413;BME280;2729;50.056;8.678;2022-09-09T04:37:29;99754.50;;;17.84;100.00
5413;BME280;2729;50.056;8.678;2022-09-09T04:39:55;99746.38;;;17.87;100.00
5413;BME280;2729;50.056;8.678;2022-09-09T04:42:21;99744.22;;;17.79;100.00
5413;BME280;2729;50.056;8.678;2022-09-09T04:44:48;99745.53;;;17.86;100.00
5413;BME280;2729;50.056;8.678;2022-09-09T04:47:15;99752.81;;;17.68;100.00
5413;BME280;2729;50.056;8.678;2022-09-09T04:49:41;99742.34;;;17.81;100.00
5413;BME280;2729;50.056;8.678;2022-09-09T04:52:07;99746.38;;;17.87;100.00
5413;BME280;2729;50.056;8.678;2022-09-09T04:54:35;99748.28;;;17.85;100.00
5413;BME280;2729;50.056;8.678;2022-09-09T04:57:01;99749.22;;;17.84;100.00
5413;BME280;2729;50.056;8.678;2022-09-09T04:59:27;99752.25;;;17.78;100.00
5413;BME280;2729;50.056;8.678;2022-09-09T05:01:56;99756.19;;;17.85;100.00
5413;BME280;2729;50.056;8.678;2022-09-09T05:04:22;99759.41;;;17.76;100.00
5413;BME280;2729;50.056;8.678;2022-09-09T05:06:48;99757.81;;;17.73;100.00
5413;BME280;2729;50.056;8.678;2022-09-09T05:09:14;99768.28;;;17.75;100.00
5413;BME280;2729;50.056;8.678;2022-09-09T05:11:40;99769.88;;;17.77;100.00
5413;BME280;2729;50.056;8.678;2022-09-09T05:14:13;99777.22;;;17.72;100.00
5413;BME280;2729;50.056;8.678;2022-09-09T05:16:40;99779.97;;;17.85;100.00
5413;BME280;2729;50.056;8.678;2022-09-09T05:19:06;99786.84;;;17.87;100.00
5413;BME280;2729;50.056;8.678;2022-09-09T05:21:46;99789.94;;;17.94;100.00
5413;BME280;2729;50.056;8.678;2022-09-09T05:24:14;99789.28;;;17.90;100.00
5413;BME280;2729;50.056;8.678;2022-09-09T05:26:41;99797.28;;;18.03;100.00
5413;BME280;2729;50.056;8.678;2022-09-09T05:29:07;99796.78;;;18.11;100.00
5413;BME280;2729;50.056;8.678;2022-09-09T05:31:33;99797.53;;;18.13;100.00
5413;BME280;2729;50.056;8.678;2022-09-09T05:34:02;99805.75;;;18.08;100.00
5413;BME280;2729;50.056;8.678;2022-09-09T05:36:28;99798.41;;;18.13;100.00
5413;BME280;2729;50.056;8.678;2022-09-09T05:38:56;99809.50;;;18.18;100.00
5413;BME280;2729;50.056;8.678;2022-09-09T05:41:23;99817.34;;;18.34;100.00
5413;BME280;2729;50.056;8.678;2022-09-09T05:43:50;99807.41;;;18.38;100.00
5413;BME280;2729;50.056;8.678;2022-09-09T05:46:19;99809.44;;;18.61;100.00
5413;BME280;2729;50.056;8.678;2022-09-09T05:48:48;99797.59;;;18.40;100.00
5413;BME280;2729;50.056;8.678;2022-09-09T05:51:25;99812.75;;;18.50;100.00
5413;BME280;2729;50.056;8.678;2022-09-09T05:53:53;99811.66;;;18.40;100.00
5413;BME280;2729;50.056;8.678;2022-09-09T05:56:24;99813.81;;;18.48;100.00
5413;BME280;2729;50.056;8.678;2022-09-09T05:58:54;99813.69;;;18.63;100.00
5413;BME280;2729;50.056;8.678;2022-09-09T06:01:27;99823.44;;;18.49;100.00
5413;BME280;2729;50.056;8.678;2022-09-09T06:03:54;99827.66;;;18.66;100.00
5413;BME280;2729;50.056;8.678;2022-09-09T06:06:27;99824.41;;;19.14;100.00
5413;BME280;2729;50.056;8.678;2022-09-09T06:08:57;99819.22;;;18.73;100.00
5413;BME280;2729;50.056;8.678;2022-09-09T06:11:30;99823.59;;;18.87;100.00
5413;BME280;2729;50.056;8.678;2022-09-09T06:13:58;99821.84;;;18.73;100.00
5413;BME280;2729;50.056;8.678;2022-09-09T06:16:27;99816.06;;;18.81;100.00
5413;BME280;2729;50.056;8.678;2022-09-09T06:18:54;99813.63;;;18.78;100.00
5413;BME280;2729;50.056;8.678;2022-09-09T06:21:23;99815.16;;;18.94;100.00
5413;BME280;2729;50.056;8.678;2022-09-09T06:23:50;99819.81;;;19.04;100.00
5413;BME280;2729;50.056;8.678;2022-09-09T06:26:22;99811.97;;;18.89;100.00
5413;BME280;2729;50.056;8.678;2022-09-09T06:28:51;99823.53;;;19.01;100.00
5413;BME280;2729;50.056;8.678;2022-09-09T06:31:23;99816.88;;;19.08;100.00
5413;BME280;2729;50.056;8.678;2022-09-09T06:33:51;99812.66;;;19.44;100.00
5413;BME280;2729;50.056;8.678;2022-09-09T06:36:23;99816.16;;;19.44;100.00
5413;BME280;2729;50.056;8.678;2022-09-09T06:38:50;99815.88;;;19.62;100.00
5413;BME280;2729;50.056;8.678;2022-09-09T06:41:18;99808.88;;;19.73;100.00
5413;BME280;2729;50.056;8.678;2022-09-09T06:43:48;99817.56;;;19.63;100.00
5413;BME280;2729;50.056;8.678;2022-09-09T06:46:26;99822.66;;;19.53;100.00
5413;BME280;2729;50.056;8.678;2022-09-09T06:48:54;99816.81;;;19.61;100.00
5413;BME280;2729;50.056;8.678;2022-09-09T06:51:30;99824.34;;;19.67;100.00
5413;BME280;2729;50.056;8.678;2022-09-09T06:53:58;99819.03;;;19.92;100.00
5413;BME280;2729;50.056;8.678;2022-09-09T06:56:30;99832.81;;;19.72;100.00
5413;BME280;2729;50.056;8.678;2022-09-09T06:58:59;99827.84;;;19.54;100.00
5413;BME280;2729;50.056;8.678;2022-09-09T07:01:34;99826.56;;;19.73;100.00
5413;BME280;2729;50.056;8.678;2022-09-09T07:04:04;99812.72;;;20.18;100.00
5413;BME280;2729;50.056;8.678;2022-09-09T07:06:35;99819.53;;;19.97;100.00
5413;BME280;2729;50.056;8.678;2022-09-09T07:09:05;99821.53;;;20.06;100.00
5413;BME280;2729;50.056;8.678;2022-09-09T07:11:33;99817.38;;;20.15;100.00
5413;BME280;2729;50.056;8.678;2022-09-09T07:14:00;99819.78;;;20.31;100.00
5413;BME280;2729;50.056;8.678;2022-09-09T07:16:27;99829.78;;;20.14;100.00
5413;BME280;2729;50.056;8.678;2022-09-09T07:18:56;99829.28;;;20.46;100.00
5413;BME280;2729;50.056;8.678;2022-09-09T07:21:27;99830.81;;;20.24;100.00
5413;BME280;2729;50.056;8.678;2022-09-09T07:23:53;99832.34;;;20.03;100.00
5413;BME280;2729;50.056;8.678;2022-09-09T07:26:23;99829.94;;;19.87;100.00
5413;BME280;2729;50.056;8.678;2022-09-09T07:28:51;99817.53;;;20.01;100.00
5413;BME280;2729;50.056;8.678;2022-09-09T07:31:23;99824.84;;;19.97;100.00
5413;BME280;2729;50.056;8.678;2022-09-09T07:33:49;99828.44;;;20.45;100.00
5413;BME280;2729;50.056;8.678;2022-09-09T07:36:19;99823.38;;;20.30;100.00
5413;BME280;2729;50.056;8.678;2022-09-09T07:38:51;99832.91;;;20.32;100.00
5413;BME280;2729;50.056;8.678;2022-09-09T07:41:50;99826.41;;;20.00;100.00
5413;BME280;2729;50.056;8.678;2022-09-09T07:44:21;99830.41;;;20.18;100.00
5413;BME280;2729;50.056;8.678;2022-09-09T07:46:50;99839.78;;;20.47;100.00
5413;BME280;2729;50.056;8.678;2022-09-09T07:49:21;99840.19;;;20.54;100.00
5413;BME280;2729;50.056;8.678;2022-09-09T07:51:48;99840.75;;;20.46;100.00
5413;BME280;2729;50.056;8.678;2022-09-09T07:54:18;99839.91;;;20.33;100.00
5413;BME280;2729;50.056;8.678;2022-09-09T07:56:50;99854.13;;;20.32;100.00
5413;BME280;2729;50.056;8.678;2022-09-09T07:59:17;99859.41;;;20.45;100.00
5413;BME280;2729;50.056;8.678;2022-09-09T08:01:48;99855.97;;;20.06;100.00
5413;BME280;2729;50.056;8.678;2022-09-09T08:04:20;99866.53;;;20.32;100.00
5413;BME280;2729;50.056;8.678;2022-09-09T08:06:52;99862.19;;;20.67;100.00
5413;BME280;2729;50.056;8.678;2022-09-09T08:09:21;99868.31;;;20.44;100.00
5413;BME280;2729;50.056;8.678;2022-09-09T08:11:48;99865.19;;;20.63;100.00
5413;BME280;2729;50.056;8.678;2022-09-09T08:14:14;99863.09;;;20.55;100.00
5413;BME280;2729;50.056;8.678;2022-09-09T08:16:44;99862.25;;;20.78;100.00
5413;BME280;2729;50.056;8.678;2022-09-09T08:19:12;99864.91;;;21.26;100.00
5413;BME280;2729;50.056;8.678;2022-09-09T08:21:40;99862.25;;;20.78;100.00
5413;BME280;2729;50.056;8.678;2022-09-09T08:24:07;99866.97;;;20.99;100.00
5413;BME280;2729;50.056;8.678;2022-09-09T08:26:39;99878.84;;;20.69;100.00
5413;BME280;2729;50.056;8.678;2022-09-09T08:29:08;99879.06;;;20.66;100.00
5413;BME280;2729;50.056;8.678;2022-09-09T08:31:38;99870.00;;;21.29;100.00
5413;BME280;2729;50.056;8.678;2022-09-09T08:34:07;99873.00;;;21.01;100.00
5413;BME280;2729;50.056;8.678;2022-09-09T08:36:36;99878.94;;;21.04;100.00
5413;BME280;2729;50.056;8.678;2022-09-09T08:39:05;99875.88;;;20.98;100.00
5413;BME280;2729;50.056;8.678;2022-09-09T08:41:38;99874.00;;;21.35;100.00
5413;BME280;2729;50.056;8.678;2022-09-09T08:46:58;99882.25;;;21.54;100.00
5413;BME280;2729;50.056;8.678;2022-09-09T08:51:59;99875.97;;;21.55;100.00
5413;BME280;2729;50.056;8.678;2022-09-09T08:54:34;99872.00;;;21.61;100.00
5413;BME280;2729;50.056;8.678;2022-09-09T08:57:03;99876.41;;;21.38;100.00
5413;BME280;2729;50.056;8.678;2022-09-09T08:59:33;99876.34;;;21.62;100.00
5413;BME280;2729;50.056;8.678;2022-09-09T09:02:01;99864.06;;;21.26;100.00
5413;BME280;2729;50.056;8.678;2022-09-09T09:07:35;99859.88;;;21.34;100.00
5413;BME280;2729;50.056;8.678;2022-09-09T09:12:41;99857.81;;;22.06;100.00
5413;BME280;2729;50.056;8.678;2022-09-09T09:15:16;99853.06;;;21.65;100.00
5413;BME280;2729;50.056;8.678;2022-09-09T09:17:43;99848.75;;;22.09;100.00
5413;BME280;2729;50.056;8.678;2022-09-09T09:20:15;99853.09;;;22.21;100.00
5413;BME280;2729;50.056;8.678;2022-09-09T09:22:54;99854.75;;;22.33;100.00
5413;BME280;2729;50.056;8.678;2022-09-09T09:25:27;99856.47;;;22.23;100.00
5413;BME280;2729;50.056;8.678;2022-09-09T09:30:29;99852.47;;;21.95;100.00
5413;BME280;2729;50.056;8.678;2022-09-09T09:33:14;99865.63;;;21.86;100.00
5413;BME280;2729;50.056;8.678;2022-09-09T09:35:41;99862.38;;;21.82;100.00
5413;BME280;2729;50.056;8.678;2022-09-09T09:40:52;99870.09;;;21.85;100.00
5413;BME280;2729;50.056;8.678;2022-09-09T09:43:24;99855.88;;;20.57;100.00
5413;BME280;2729;50.056;8.678;2022-09-09T09:45:52;99873.19;;;20.37;100.00
5413;BME280;2729;50.056;8.678;2022-09-09T09:48:18;99877.69;;;20.11;100.00
5413;BME280;2729;50.056;8.678;2022-09-09T09:50:53;99870.09;;;19.94;100.00
5413;BME280;2729;50.056;8.678;2022-09-09T09:53:23;99868.34;;;20.18;100.00
5413;BME280;2729;50.056;8.678;2022-09-09T09:55:59;99877.28;;;19.92;100.00
5413;BME280;2729;50.056;8.678;2022-09-09T09:58:35;99862.50;;;20.39;100.00
5413;BME280;2729;50.056;8.678;2022-09-09T10:01:04;99865.16;;;20.39;100.00
5413;BME280;2729;50.056;8.678;2022-09-09T10:03:32;99861.97;;;20.34;100.00
5413;BME280;2729;50.056;8.678;2022-09-09T10:06:03;99860.72;;;20.27;100.00
5413;BME280;2729;50.056;8.678;2022-09-09T10:08:33;99858.25;;;20.36;100.00
5413;BME280;2729;50.056;8.678;2022-09-09T10:14:21;99858.53;;;20.57;100.00
5413;BME280;2729;50.056;8.678;2022-09-09T10:19:33;99850.28;;;21.89;100.00
5413;BME280;2729;50.056;8.678;2022-09-09T10:22:25;99837.75;;;22.02;100.00
5413;BME280;2729;50.056;8.678;2022-09-09T10:31:13;99819.44;;;22.86;100.00
5413;BME280;2729;50.056;8.678;2022-09-09T10:33:53;99823.91;;;23.17;100.00
5413;BME280;2729;50.056;8.678;2022-09-09T10:36:25;99826.09;;;23.33;100.00
5413;BME280;2729;50.056;8.678;2022-09-09T10:39:04;99818.88;;;23.03;100.00
5413;BME280;2729;50.056;8.678;2022-09-09T10:41:47;99819.72;;;22.71;100.00
5413;BME280;2729;50.056;8.678;2022-09-09T10:44:29;99823.47;;;22.26;100.00
5413;BME280;2729;50.056;8.678;2022-09-09T10:53:02;99809.34;;;21.92;100.00
5413;BME280;2729;50.056;8.678;2022-09-09T10:55:43;99815.25;;;21.62;100.00
5413;BME280;2729;50.056;8.678;2022-09-09T10:58:25;99816.69;;;21.43;100.00
5413;BME280;2729;50.056;8.678;2022-09-09T11:00:56;99826.91;;;21.26;100.00
5413;BME280;2729;50.056;8.678;2022-09-09T11:03:28;99815.84;;;21.08;100.00
5413;BME280;2729;50.056;8.678;2022-09-09T11:06:05;99829.97;;;21.55;100.00
5413;BME280;2729;50.056;8.678;2022-09-09T11:08:35;99800.72;;;21.32;100.00
5413;BME280;2729;50.056;8.678;2022-09-09T11:14:19;99806.69;;;21.80;100.00
5413;BME280;2729;50.056;8.678;2022-09-09T11:17:02;99797.03;;;21.79;100.00
5413;BME280;2729;50.056;8.678;2022-09-09T11:19:39;99795.47;;;22.10;100.00
5413;BME280;2729;50.056;8.678;2022-09-09T11:22:14;99794.75;;;22.08;100.00
5413;BME280;2729;50.056;8.678;2022-09-09T11:24:52;99796.31;;;22.11;100.00
5413;BME280;2729;50.056;8.678;2022-09-09T11:27:30;99810.84;;;22.93;100.00
5413;BME280;2729;50.056;8.678;2022-09-09T11:30:11;99812.34;;;21.98;100.00
5413;BME280;2729;50.056;8.678;2022-09-09T11:35:30;99809.25;;;22.04;100.00
5413;BME280;2729;50.056;8.678;2022-09-09T11:38:16;99802.66;;;22.31;100.00
5413;BME280;2729;50.056;8.678;2022-09-09T11:40:45;99803.91;;;22.16;100.00
5413;BME280;2729;50.056;8.678;2022-09-09T11:43:14;99807.41;;;22.27;100.00
5413;BME280;2729;50.056;8.678;2022-09-09T11:45:43;99803.03;;;22.37;100.00
5413;BME280;2729;50.056;8.678;2022-09-09T11:48:26;99792.19;;;22.61;100.00
5413;BME280;2729;50.056;8.678;2022-09-09T11:53:58;99803.31;;;22.55;97.63
5413;BME280;2729;50.056;8.678;2022-09-09T11:56:26;99796.34;;;22.43;100.00
5413;BME280;2729;50.056;8.678;2022-09-09T12:01:28;99810.13;;;22.48;87.24
5413;BME280;2729;50.056;8.678;2022-09-09T12:04:05;99809.22;;;22.27;91.48
5413;BME280;2729;50.056;8.678;2022-09-09T12:06:42;99806.78;;;22.35;80.67
5413;BME280;2729;50.056;8.678;2022-09-09T12:09:22;99809.72;;;22.64;83.45
5413;BME280;2729;50.056;8.678;2022-09-09T12:11:52;99813.56;;;22.28;81.52
5413;BME280;2729;50.056;8.678;2022-09-09T12:17:23;99805.56;;;22.39;86.70
5413;BME280;2729;50.056;8.678;2022-09-09T12:20:02;99802.31;;;22.67;88.66
5413;BME280;2729;50.056;8.678;2022-09-09T12:22:40;99790.28;;;22.52;82.21
5413;BME280;2729;50.056;8.678;2022-09-09T12:28:19;99794.63;;;22.53;86.06
5413;BME280;2729;50.056;8.678;2022-09-09T12:31:01;99791.13;;;22.53;84.54
5413;BME280;2729;50.056;8.678;2022-09-09T12:33:36;99792.75;;;22.33;90.00
5413;BME280;2729;50.056;8.678;2022-09-09T12:36:03;99796.06;;;22.57;97.90
5413;BME280;2729;50.056;8.678;2022-09-09T12:38:34;99806.75;;;22.46;100.00
5413;BME280;2729;50.056;8.678;2022-09-09T12:41:01;99813.69;;;21.59;100.00
5413;BME280;2729;50.056;8.678;2022-09-09T12:43:28;99816.28;;;20.91;100.00
5413;BME280;2729;50.056;8.678;2022-09-09T12:48:28;99835.66;;;20.31;100.00
5413;BME280;2729;50.056;8.678;2022-09-09T12:50:57;99829.75;;;20.40;100.00
5413;BME280;2729;50.056;8.678;2022-09-09T12:53:26;99838.69;;;20.13;100.00
5413;BME280;2729;50.056;8.678;2022-09-09T12:58:23;99821.75;;;20.03;100.00
5413;BME280;2729;50.056;8.678;2022-09-09T13:00:51;99818.16;;;20.04;100.00
5413;BME280;2729;50.056;8.678;2022-09-09T13:03:20;99822.75;;;20.39;100.00
5413;BME280;2729;50.056;8.678;2022-09-09T13:05:50;99818.34;;;20.74;100.00
5413;BME280;2729;50.056;8.678;2022-09-09T13:08:17;99823.03;;;20.71;100.00
5413;BME280;2729;50.056;8.678;2022-09-09T13:10:57;99828.69;;;20.66;100.00
5413;BME280;2729;50.056;8.678;2022-09-09T13:13:36;99833.25;;;20.88;100.00
5413;BME280;2729;50.056;8.678;2022-09-09T13:16:03;99832.31;;;20.89;100.00
5413;BME280;2729;50.056;8.678;2022-09-09T13:18:37;99842.38;;;20.23;100.00
5413;BME280;2729;50.056;8.678;2022-09-09T13:21:06;99845.97;;;20.22;100.00
5413;BME280;2729;50.056;8.678;2022-09-09T13:23:34;99832.94;;;20.19;100.00
5413;BME280;2729;50.056;8.678;2022-09-09T13:26:06;99837.50;;;20.17;100.00
5413;BME280;2729;50.056;8.678;2022-09-09T13:28:44;99837.00;;;20.12;100.00
5413;BME280;2729;50.056;8.678;2022-09-09T13:31:33;99824.69;;;20.11;100.00
5413;BME280;2729;50.056;8.678;2022-09-09T13:34:14;99824.25;;;20.17;100.00
5413;BME280;2729;50.056;8.678;2022-09-09T13:37:00;99828.91;;;20.27;100.00
5413;BME280;2729;50.056;8.678;2022-09-09T13:39:33;99812.53;;;20.45;100.00
5413;BME280;2729;50.056;8.678;2022-09-09T13:42:01;99802.16;;;21.25;100.00
5413;BME280;2729;50.056;8.678;2022-09-09T13:44:31;99801.72;;;21.54;100.00
5413;BME280;2729;50.056;8.678;2022-09-09T13:49:32;99797.38;;;21.64;100.00
5413;BME280;2729;50.056;8.678;2022-09-09T13:52:10;99795.47;;;22.10;100.00
5413;BME280;2729;50.056;8.678;2022-09-09T13:54:37;99793.53;;;21.79;100.00
5413;BME280;2729;50.056;8.678;2022-09-09T13:57:03;99795.81;;;21.95;100.00
5413;BME280;2729;50.056;8.678;2022-09-09T13:59:30;99797.69;;;22.37;100.00
5413;BME280;2729;50.056;8.678;2022-09-09T14:01:57;99812.25;;;21.66;100.00
5413;BME280;2729;50.056;8.678;2022-09-09T14:04:23;99819.81;;;21.48;100.00
5413;BME280;2729;50.056;8.678;2022-09-09T14:06:50;99829.00;;;21.56;100.00
5413;BME280;2729;50.056;8.678;2022-09-09T14:09:17;99821.72;;;21.24;100.00
5413;BME280;2729;50.056;8.678;2022-09-09T14:11:44;99832.03;;;21.51;100.00
5413;BME280;2729;50.056;8.678;2022-09-09T14:14:13;99833.94;;;21.03;100.00
5413;BME280;2729;50.056;8.678;2022-09-09T14:16:39;99838.78;;;21.09;100.00
5413;BME280;2729;50.056;8.678;2022-09-09T14:19:05;99830.03;;;20.96;100.00
5413;BME280;2729;50.056;8.678;2022-09-09T14:21:33;99827.34;;;21.19;100.00
5413;BME280;2729;50.056;8.678;2022-09-09T14:23:59;99830.78;;;21.33;100.00
5413;BME280;2729;50.056;8.678;2022-09-09T14:26:25;99839.34;;;21.01;100.00
5413;BME280;2729;50.056;8.678;2022-09-09T14:28:52;99832.47;;;20.99;100.00
5413;BME280;2729;50.056;8.678;2022-09-09T14:31:18;99840.31;;;21.35;100.00
5413;BME280;2729;50.056;8.678;2022-09-09T14:33:44;99832.50;;;21.10;100.00
5413;BME280;2729;50.056;8.678;2022-09-09T14:36:10;99827.94;;;21.58;100.00
5413;BME280;2729;50.056;8.678;2022-09-09T14:38:38;99818.88;;;21.72;100.00
5413;BME280;2729;50.056;8.678;2022-09-09T14:41:16;99811.88;;;21.48;100.00
5413;BME280;2729;50.056;8.678;2022-09-09T14:43:43;99816.09;;;21.62;100.00
5413;BME280;2729;50.056;8.678;2022-09-09T14:46:11;99798.47;;;21.50;100.00
5413;BME280;2729;50.056;8.678;2022-09-09T14:48:38;99800.41;;;21.59;100.00
5413;BME280;2729;50.056;8.678;2022-09-09T14:53:36;99794.38;;;21.91;100.00
5413;BME280;2729;50.056;8.678;2022-09-09T14:56:07;99794.25;;;21.70;100.00
5413;BME280;2729;50.056;8.678;2022-09-09T14:58:34;99788.38;;;21.20;100.00
5413;BME280;2729;50.056;8.678;2022-09-09T15:01:08;99781.78;;;21.37;100.00
5413;BME280;2729;50.056;8.678;2022-09-09T15:03:39;99777.09;;;20.94;100.00